Terminal Aerodrome Forecast
Issued by NWS Topeka, KS

Home | Current Version | Previous Version | Text Only | Print | Product List | Glossary Off
Versions: 1 2 3 4 5 6 7 8 9 10 11 12 13 14 15

000
FTUS43 KTOP 150520
TAFTOP
TAF
KTOP 150520Z 1506/1606 31005KT P6SM SCT025 OVC050
     FM151000 30004KT P6SM FEW200
     FM151800 24008KT P6SM FEW250=

USA.gov is the U.S. government's official web portal to all federal, state and local government web resources and services.